createdAt,value
2019-03-22T00:00:24.323Z,29.93
2019-03-22T00:02:53.045Z,32.03
2019-03-22T00:05:21.762Z,35.10
2019-03-22T00:07:50.485Z,34.17
2019-03-22T00:10:19.238Z,33.00
2019-03-22T00:12:47.961Z,36.80
2019-03-22T00:15:16.680Z,38.07
2019-03-22T00:17:45.387Z,32.43
2019-03-22T00:20:14.334Z,25.67
2019-03-22T00:22:43.047Z,32.20
2019-03-22T00:25:11.742Z,36.47
2019-03-22T00:27:40.454Z,33.10
2019-03-22T00:30:10.270Z,38.27
2019-03-22T00:32:39.031Z,34.20
2019-03-22T00:35:08.940Z,35.97
2019-03-22T00:37:37.652Z,33.30
2019-03-22T00:40:10.959Z,34.57
2019-03-22T00:42:39.662Z,29.80
2019-03-22T00:45:09.605Z,30.20
2019-03-22T00:47:38.309Z,35.73
2019-03-22T00:50:08.964Z,36.70
2019-03-22T00:52:37.735Z,31.77
2019-03-22T00:55:07.007Z,32.67
2019-03-22T00:57:35.758Z,32.87
2019-03-22T01:00:07.237Z,30.87
2019-03-22T01:02:35.947Z,33.07
2019-03-22T01:05:07.570Z,30.47
2019-03-22T01:07:36.289Z,27.40
2019-03-22T01:10:13.274Z,31.10
2019-03-22T01:12:41.992Z,30.57
2019-03-22T01:15:13.560Z,30.00
2019-03-22T01:17:42.958Z,31.50
2019-03-22T01:20:12.618Z,30.90
2019-03-22T01:22:42.415Z,36.70
2019-03-22T01:25:12.130Z,35.03
2019-03-22T01:27:41.534Z,35.77
2019-03-22T01:30:15.796Z,32.50
2019-03-22T01:32:44.523Z,37.67
2019-03-22T01:35:13.774Z,42.17
2019-03-22T01:37:42.484Z,38.87
2019-03-22T01:40:12.691Z,38.80
2019-03-22T01:42:41.409Z,36.77
2019-03-22T01:45:12.392Z,40.27
2019-03-22T01:47:41.137Z,38.17
2019-03-22T01:50:12.946Z,42.63
2019-03-22T01:52:41.655Z,37.00
2019-03-22T01:55:10.517Z,38.57
2019-03-22T01:57:39.223Z,36.57
2019-03-22T02:00:10.939Z,40.57
2019-03-22T02:02:39.693Z,40.37
2019-03-22T02:05:08.609Z,32.53
2019-03-22T02:07:37.319Z,30.90
2019-03-22T02:10:08.765Z,35.97
2019-03-22T02:12:37.441Z,41.03
2019-03-22T02:15:09.115Z,36.37
2019-03-22T02:17:37.822Z,34.93
2019-03-22T02:20:08.903Z,39.70
2019-03-22T02:22:37.622Z,40.53
2019-03-22T02:25:07.657Z,39.13
2019-03-22T02:27:36.473Z,37.70
2019-03-22T02:30:08.288Z,36.37
2019-03-22T02:32:36.997Z,39.07
2019-03-22T02:35:07.418Z,37.57
2019-03-22T02:37:36.131Z,39.97
2019-03-22T02:40:07.194Z,39.67
2019-03-22T02:42:35.910Z,35.80
2019-03-22T02:45:07.319Z,37.93
2019-03-22T02:47:36.036Z,39.77
2019-03-22T02:50:18.137Z,44.83
2019-03-22T02:52:40.582Z,42.83
2019-03-22T02:55:10.700Z,41.20
2019-03-22T02:57:39.411Z,43.10
2019-03-22T03:00:11.297Z,42.07
2019-03-22T03:02:40.019Z,38.13
2019-03-22T03:05:10.062Z,39.50
2019-03-22T03:07:38.877Z,44.73
2019-03-22T03:10:10.852Z,48.30
2019-03-22T03:12:39.579Z,52.50
2019-03-22T03:15:13.472Z,43.60
2019-03-22T03:17:42.235Z,39.33
2019-03-22T03:20:13.857Z,40.40
2019-03-22T03:22:42.561Z,39.70
2019-03-22T03:25:11.370Z,37.77
2019-03-22T03:27:40.076Z,38.97
2019-03-22T03:30:17.930Z,40.23
2019-03-22T03:32:46.675Z,31.50
2019-03-22T03:35:15.807Z,28.77
2019-03-22T03:37:44.507Z,27.50
2019-03-22T03:40:14.893Z,27.20
2019-03-22T03:42:43.653Z,27.60
2019-03-22T03:45:31.894Z,31.10
2019-03-22T03:48:02.249Z,33.00
2019-03-22T03:50:30.954Z,30.90
2019-03-22T03:52:59.666Z,32.70
2019-03-22T03:55:29.177Z,32.33
2019-03-22T03:57:58.088Z,33.17
2019-03-22T04:00:26.860Z,30.83
2019-03-22T04:02:55.611Z,31.87
2019-03-22T04:05:24.874Z,30.97
2019-03-22T04:07:57.013Z,29.10
2019-03-22T04:10:25.739Z,33.67
2019-03-22T04:12:56.948Z,50.30
2019-03-22T04:15:25.654Z,57.90
2019-03-22T04:17:54.361Z,47.00
2019-03-22T04:20:23.088Z,41.37
2019-03-22T04:22:51.802Z,41.37
2019-03-22T04:25:20.579Z,39.67
2019-03-22T04:27:49.325Z,38.13
2019-03-22T04:30:18.032Z,38.17
2019-03-22T04:32:46.745Z,34.30
2019-03-22T04:35:15.451Z,40.37
2019-03-22T04:37:44.211Z,39.93
2019-03-22T04:40:27.238Z,48.63
2019-03-22T04:43:02.159Z,57.60
2019-03-22T04:45:32.066Z,35.97
2019-03-22T04:48:12.946Z,34.37
2019-03-22T04:50:43.986Z,58.50
2019-03-22T04:53:15.952Z,87.67
2019-03-22T04:55:47.796Z,54.10
2019-03-22T04:58:19.414Z,64.70
2019-03-22T05:00:49.374Z,122.73
2019-03-22T05:03:19.507Z,81.40
2019-03-22T05:05:50.461Z,44.10
2019-03-22T05:08:21.166Z,36.37
2019-03-22T05:10:50.008Z,39.63
2019-03-22T05:13:21.126Z,39.03
2019-03-22T05:15:50.752Z,38.27
2019-03-22T05:18:20.084Z,34.43
2019-03-22T05:20:50.094Z,40.83
2019-03-22T05:23:21.862Z,32.57
2019-03-22T05:25:52.610Z,35.07
2019-03-22T05:28:21.614Z,40.67
2019-03-22T05:31:05.178Z,44.73
2019-03-22T05:33:33.887Z,42.83
2019-03-22T05:36:02.605Z,46.77
2019-03-22T05:38:31.310Z,46.53
2019-03-22T05:41:00.017Z,39.03
2019-03-22T05:43:28.734Z,40.73
2019-03-22T05:45:57.451Z,48.77
2019-03-22T05:48:26.154Z,78.57
2019-03-22T05:50:54.993Z,146.83
2019-03-22T05:53:23.702Z,106.27
2019-03-22T05:55:52.415Z,60.20
2019-03-22T05:58:21.130Z,42.43
2019-03-22T06:00:49.839Z,39.77
2019-03-22T06:03:18.603Z,41.40
2019-03-22T06:05:47.311Z,47.80
2019-03-22T06:08:16.021Z,47.93
2019-03-22T06:10:44.743Z,41.33
2019-03-22T06:13:13.452Z,35.37
2019-03-22T06:15:42.229Z,32.70
2019-03-22T06:18:10.937Z,33.93
2019-03-22T06:20:39.651Z,31.63
2019-03-22T06:23:08.375Z,29.80
2019-03-22T06:25:37.264Z,34.70
2019-03-22T06:28:05.979Z,30.70
2019-03-22T06:30:34.699Z,28.63
2019-03-22T06:33:03.425Z,27.67
2019-03-22T06:35:32.133Z,28.23
2019-03-22T06:38:00.873Z,29.83
2019-03-22T06:40:29.583Z,34.40
2019-03-22T06:42:58.343Z,30.73
2019-03-22T06:45:27.052Z,32.77
2019-03-22T06:47:55.770Z,34.57
2019-03-22T06:50:24.502Z,24.43
2019-03-22T06:52:53.204Z,33.40
2019-03-22T06:55:21.924Z,33.40
2019-03-22T06:57:50.653Z,27.60
2019-03-22T07:00:19.365Z,25.83
2019-03-22T07:02:48.121Z,28.13
2019-03-22T07:05:16.832Z,25.50
2019-03-22T07:07:45.545Z,31.20
2019-03-22T07:10:14.267Z,31.53
2019-03-22T07:12:43.081Z,31.77
2019-03-22T07:15:11.933Z,25.83
2019-03-22T07:17:40.652Z,22.87
2019-03-22T07:20:09.563Z,27.73
2019-03-22T07:22:38.290Z,25.07
2019-03-22T07:25:08.105Z,26.23
2019-03-22T07:27:36.829Z,21.30
2019-03-22T07:30:18.099Z,22.80
2019-03-22T07:32:38.910Z,24.03
2019-03-22T07:35:07.970Z,21.80
2019-03-22T07:37:37.322Z,22.37
2019-03-22T07:40:08.517Z,23.20
2019-03-22T07:42:37.219Z,24.50
2019-03-22T07:45:07.971Z,23.90
2019-03-22T07:47:36.686Z,25.13
2019-03-22T07:50:10.217Z,23.43
2019-03-22T07:52:38.943Z,25.93
2019-03-22T07:55:08.063Z,24.20
2019-03-22T07:57:36.778Z,23.27
2019-03-22T08:00:08.511Z,23.17
2019-03-22T08:02:37.314Z,25.70
2019-03-22T08:05:07.618Z,20.83
2019-03-22T08:07:36.327Z,29.47
2019-03-22T08:10:06.976Z,29.77
2019-03-22T08:12:35.660Z,25.23
2019-03-22T08:15:08.194Z,25.33
2019-03-22T08:17:35.939Z,25.07
2019-03-22T08:20:06.177Z,24.83
2019-03-22T08:22:34.890Z,28.67
2019-03-22T08:25:03.607Z,24.63
2019-03-22T08:27:32.370Z,29.83
2019-03-22T08:30:01.115Z,25.27
2019-03-22T08:32:29.805Z,26.10
2019-03-22T08:34:59.504Z,29.50
2019-03-22T08:37:28.218Z,27.07
2019-03-22T08:39:57.056Z,28.00
2019-03-22T08:42:25.781Z,31.43
2019-03-22T08:44:57.064Z,24.17
2019-03-22T08:47:33.946Z,25.33
2019-03-22T08:49:57.187Z,26.43
2019-03-22T08:52:25.893Z,24.07
2019-03-22T08:54:54.653Z,26.43
2019-03-22T08:57:24.994Z,28.17
2019-03-22T08:59:53.920Z,27.87
2019-03-22T09:02:22.706Z,26.47
2019-03-22T09:04:51.394Z,25.30
2019-03-22T09:07:20.132Z,24.77
2019-03-22T09:09:48.837Z,28.67
2019-03-22T09:12:17.531Z,24.97
2019-03-22T09:14:46.267Z,27.00
2019-03-22T09:17:14.963Z,27.93
2019-03-22T09:19:44.617Z,24.53
2019-03-22T09:22:13.319Z,26.90
2019-03-22T09:24:42.033Z,29.07
2019-03-22T09:27:10.756Z,28.40
2019-03-22T09:29:39.517Z,25.90
2019-03-22T09:32:08.267Z,25.60
2019-03-22T09:34:37.009Z,28.77
2019-03-22T09:37:08.637Z,24.80
2019-03-22T09:39:36.167Z,21.67
2019-03-22T09:42:04.986Z,24.60
2019-03-22T09:44:43.132Z,23.17
2019-03-22T09:47:04.265Z,25.60
2019-03-22T09:49:33.023Z,26.43
2019-03-22T09:52:01.753Z,24.77
2019-03-22T09:54:30.463Z,26.13
2019-03-22T09:57:00.038Z,25.63
2019-03-22T09:59:28.786Z,25.63
2019-03-22T10:01:57.829Z,25.13
2019-03-22T10:04:26.562Z,28.57
2019-03-22T10:06:55.271Z,24.80
2019-03-22T10:09:24.049Z,26.93
2019-03-22T10:11:52.747Z,23.10
2019-03-22T10:14:21.627Z,28.07
2019-03-22T10:16:50.370Z,24.83
2019-03-22T10:19:19.088Z,29.87
2019-03-22T10:21:47.814Z,28.17
2019-03-22T10:24:16.529Z,29.70
2019-03-22T10:26:45.270Z,24.07
2019-03-22T10:29:14.007Z,23.60
2019-03-22T10:31:42.746Z,24.13
2019-03-22T10:34:11.421Z,22.23
2019-03-22T10:36:40.189Z,23.47
2019-03-22T10:39:09.604Z,18.63
2019-03-22T10:41:38.356Z,16.67
2019-03-22T10:44:07.067Z,17.00
2019-03-22T10:46:35.809Z,17.80
2019-03-22T10:49:04.543Z,20.37
2019-03-22T10:51:33.265Z,24.03
2019-03-22T10:54:01.990Z,18.60
2019-03-22T10:56:30.688Z,17.67
2019-03-22T10:58:59.795Z,15.87
2019-03-22T11:01:28.512Z,15.63
2019-03-22T11:03:57.450Z,15.83
2019-03-22T11:06:26.717Z,15.50
2019-03-22T11:08:55.648Z,16.47
2019-03-22T11:11:24.370Z,15.00
2019-03-22T11:13:53.092Z,15.97
2019-03-22T11:16:21.848Z,16.60
2019-03-22T11:18:50.567Z,16.33
2019-03-22T11:21:19.285Z,18.80
2019-03-22T11:23:48.009Z,16.70
2019-03-22T11:26:16.716Z,17.27
2019-03-22T11:28:45.472Z,21.60
2019-03-22T11:31:14.188Z,17.10
2019-03-22T11:33:42.904Z,17.30
2019-03-22T11:36:11.627Z,18.13
2019-03-22T11:38:40.335Z,19.80
2019-03-22T11:41:09.091Z,18.97
2019-03-22T11:43:37.810Z,19.67
2019-03-22T11:46:06.526Z,21.53
2019-03-22T11:48:35.247Z,19.03
2019-03-22T11:51:03.962Z,21.73
2019-03-22T11:53:32.731Z,22.57
2019-03-22T11:56:01.487Z,21.43
2019-03-22T11:58:30.202Z,19.27
2019-03-22T12:00:59.824Z,22.33
2019-03-22T12:03:28.537Z,20.20
2019-03-22T12:05:57.302Z,20.63
2019-03-22T12:08:26.024Z,21.73
2019-03-22T12:10:54.742Z,20.77
2019-03-22T12:13:23.459Z,16.47
2019-03-22T12:15:52.167Z,17.80
2019-03-22T12:18:20.934Z,20.37
2019-03-22T12:20:49.652Z,17.93
2019-03-22T12:23:18.362Z,18.73
2019-03-22T12:25:47.080Z,18.47
2019-03-22T12:28:15.797Z,17.03
2019-03-22T12:30:44.570Z,17.30
2019-03-22T12:33:13.284Z,15.47
2019-03-22T12:35:42.691Z,14.77
2019-03-22T12:38:11.393Z,22.60
2019-03-22T12:40:40.108Z,12.67
2019-03-22T12:43:08.865Z,15.77
2019-03-22T12:45:37.574Z,15.67
2019-03-22T12:48:06.291Z,14.63
2019-03-22T12:50:35.017Z,15.87
2019-03-22T12:53:03.723Z,15.50
2019-03-22T12:55:32.479Z,17.53
2019-03-22T12:58:01.185Z,14.60
2019-03-22T13:00:29.898Z,16.70
2019-03-22T13:02:58.616Z,15.07
2019-03-22T13:05:27.435Z,13.50
2019-03-22T13:07:57.387Z,15.37
2019-03-22T13:10:28.100Z,17.53
2019-03-22T13:12:56.911Z,13.63
2019-03-22T13:15:25.633Z,14.53
2019-03-22T13:17:54.339Z,12.57
2019-03-22T13:20:23.105Z,15.50
2019-03-22T13:22:51.821Z,11.57
2019-03-22T13:25:21.326Z,17.13
2019-03-22T13:27:50.258Z,15.03
2019-03-22T13:30:24.522Z,12.47
2019-03-22T13:32:53.232Z,13.17
2019-03-22T13:35:22.005Z,12.50
2019-03-22T13:37:50.715Z,12.70
2019-03-22T13:40:19.425Z,12.37
2019-03-22T13:42:48.170Z,12.97
2019-03-22T13:45:16.886Z,9.37
2019-03-22T13:47:45.576Z,8.80
2019-03-22T13:50:14.325Z,9.27
2019-03-22T13:52:43.049Z,12.50
2019-03-22T13:55:11.759Z,15.13
2019-03-22T13:57:40.510Z,13.93
2019-03-22T14:00:11.718Z,15.77
2019-03-22T14:02:40.432Z,18.07
2019-03-22T14:05:09.451Z,18.33
2019-03-22T14:07:38.171Z,19.63
2019-03-22T14:10:27.939Z,22.37
2019-03-22T14:12:56.748Z,19.70
2019-03-22T14:15:25.459Z,18.90
2019-03-22T14:17:58.076Z,20.23
2019-03-22T14:20:26.784Z,21.33
2019-03-22T14:22:55.496Z,21.70
2019-03-22T14:25:24.221Z,18.93
2019-03-22T14:27:53.542Z,19.07
2019-03-22T14:30:22.325Z,20.87
2019-03-22T14:32:51.092Z,16.70
2019-03-22T14:35:19.811Z,15.70
2019-03-22T14:37:48.537Z,16.17
2019-03-22T14:40:17.290Z,20.07
2019-03-22T14:42:46.007Z,14.40
2019-03-22T14:45:14.900Z,9.13
2019-03-22T14:47:43.666Z,10.23
2019-03-22T14:50:12.374Z,12.67
2019-03-22T14:52:41.079Z,10.93
2019-03-22T14:55:10.128Z,12.57
2019-03-22T14:57:48.372Z,14.43
2019-03-22T15:00:11.875Z,11.33
2019-03-22T15:02:40.639Z,13.50
2019-03-22T15:05:10.151Z,11.17
2019-03-22T15:07:38.862Z,10.07
2019-03-22T15:10:12.863Z,11.43
2019-03-22T15:12:41.577Z,10.30
2019-03-22T15:15:12.854Z,13.03
2019-03-22T15:17:49.275Z,15.20
2019-03-22T15:20:19.550Z,13.80
2019-03-22T15:22:49.838Z,13.87
2019-03-22T15:25:25.874Z,14.13
2019-03-22T15:27:58.742Z,16.87
2019-03-22T15:30:29.041Z,22.10
2019-03-22T15:32:59.381Z,45.93
2019-03-22T15:35:32.675Z,37.43
2019-03-22T15:38:09.349Z,33.73
2019-03-22T15:40:38.060Z,31.90
2019-03-22T15:43:06.787Z,37.40
2019-03-22T15:45:35.542Z,42.43
2019-03-22T15:48:04.356Z,59.20
2019-03-22T15:50:33.071Z,39.83
2019-03-22T15:53:02.881Z,25.17
2019-03-22T15:55:31.597Z,24.07
2019-03-22T15:58:00.356Z,31.33
2019-03-22T16:00:29.069Z,34.80
2019-03-22T16:02:57.806Z,32.40
2019-03-22T16:05:26.573Z,38.20
2019-03-22T16:07:55.292Z,37.07
2019-03-22T16:10:24.008Z,41.57
2019-03-22T16:12:52.766Z,67.03
2019-03-22T16:15:21.483Z,50.90
2019-03-22T16:17:50.203Z,48.10
2019-03-22T16:20:19.089Z,39.70
2019-03-22T16:22:47.815Z,45.03
2019-03-22T16:25:16.822Z,80.13
2019-03-22T16:27:45.571Z,61.93
2019-03-22T16:30:15.384Z,51.83
2019-03-22T16:32:44.208Z,54.67
2019-03-22T16:35:13.192Z,62.07
2019-03-22T16:37:41.912Z,152.53
2019-03-22T16:40:12.742Z,300.53
2019-03-22T16:42:41.450Z,272.57
2019-03-22T16:45:11.566Z,209.13
2019-03-22T16:47:40.327Z,114.00
2019-03-22T16:50:11.952Z,92.03
2019-03-22T16:52:40.674Z,173.60
2019-03-22T16:55:11.794Z,102.20
2019-03-22T16:57:40.507Z,120.97
2019-03-22T17:00:11.042Z,99.87
2019-03-22T17:02:39.761Z,104.83
2019-03-22T17:05:08.992Z,51.13
2019-03-22T17:07:37.724Z,66.60
2019-03-22T17:10:07.664Z,60.57
2019-03-22T17:12:36.407Z,39.73
2019-03-22T17:15:06.732Z,44.80
2019-03-22T17:17:35.451Z,71.43
2019-03-22T17:20:06.375Z,75.00
2019-03-22T17:22:35.097Z,65.43
2019-03-22T17:25:04.559Z,67.87
2019-03-22T17:27:33.273Z,55.87
2019-03-22T17:30:01.980Z,33.87
2019-03-22T17:32:30.737Z,39.23
2019-03-22T17:34:59.456Z,34.00
2019-03-22T17:37:28.176Z,41.23
2019-03-22T17:39:57.705Z,37.60
2019-03-22T17:42:26.438Z,42.90
2019-03-22T17:44:55.153Z,38.13
2019-03-22T17:47:23.940Z,37.77
2019-03-22T17:49:52.657Z,39.10
2019-03-22T17:52:21.392Z,45.50
2019-03-22T17:54:50.165Z,42.30
2019-03-22T17:57:19.169Z,50.30
2019-03-22T17:59:47.898Z,52.20
2019-03-22T18:02:16.655Z,37.90
2019-03-22T18:04:45.380Z,28.37
2019-03-22T18:07:14.100Z,45.67
2019-03-22T18:09:42.884Z,46.67
2019-03-22T18:12:11.621Z,50.43
2019-03-22T18:14:40.574Z,43.27
2019-03-22T18:17:09.350Z,41.67
2019-03-22T18:19:38.088Z,26.97
2019-03-22T18:22:06.808Z,24.23
2019-03-22T18:24:35.583Z,20.90
2019-03-22T18:27:04.298Z,27.97
2019-03-22T18:29:33.026Z,18.83
2019-03-22T18:32:02.757Z,27.63
2019-03-22T18:34:34.677Z,43.23
2019-03-22T18:37:01.926Z,31.90
2019-03-22T18:39:30.700Z,22.33
2019-03-22T18:41:59.411Z,36.23
2019-03-22T18:44:28.130Z,28.00
2019-03-22T18:46:57.750Z,75.10
2019-03-22T18:49:26.465Z,79.40
2019-03-22T18:51:55.176Z,68.30
2019-03-22T18:54:23.924Z,51.53
2019-03-22T18:56:52.637Z,38.93
2019-03-22T18:59:21.358Z,52.97
2019-03-22T19:01:50.117Z,38.27
2019-03-22T19:04:18.825Z,34.43
2019-03-22T19:06:48.030Z,37.80
2019-03-22T19:09:16.795Z,30.97
2019-03-22T19:11:45.507Z,44.80
2019-03-22T19:14:14.220Z,38.57
2019-03-22T19:16:42.977Z,47.67
2019-03-22T19:19:11.696Z,37.53
2019-03-22T19:21:40.415Z,28.33
2019-03-22T19:24:09.187Z,24.00
2019-03-22T19:26:37.899Z,18.70
2019-03-22T19:29:06.610Z,23.90
2019-03-22T19:31:35.452Z,21.00
2019-03-22T19:34:04.170Z,21.43
2019-03-22T19:36:32.887Z,28.73
2019-03-22T19:39:01.642Z,32.67
2019-03-22T19:41:30.350Z,37.00
2019-03-22T19:43:59.071Z,38.07
2019-03-22T19:46:27.819Z,42.73
2019-03-22T19:48:56.532Z,39.70
2019-03-22T19:51:25.250Z,32.10
2019-03-22T19:53:54.010Z,31.00
2019-03-22T19:56:22.727Z,22.73
2019-03-22T19:58:51.446Z,20.30
2019-03-22T20:01:20.210Z,18.00
2019-03-22T20:03:48.924Z,18.63
2019-03-22T20:06:17.629Z,15.27
2019-03-22T20:08:46.387Z,16.33
2019-03-22T20:11:15.108Z,33.07
2019-03-22T20:13:43.824Z,30.03
2019-03-22T20:16:12.604Z,31.50
2019-03-22T20:18:41.368Z,44.63
2019-03-22T20:21:10.089Z,48.97
2019-03-22T20:23:38.846Z,44.13
2019-03-22T20:26:07.560Z,37.63
2019-03-22T20:28:36.274Z,36.80
2019-03-22T20:31:05.004Z,36.90
2019-03-22T20:33:33.724Z,35.37
2019-03-22T20:36:02.501Z,43.27
2019-03-22T20:38:31.206Z,45.70
2019-03-22T20:40:59.918Z,34.17
2019-03-22T20:43:28.680Z,30.73
2019-03-22T20:45:58.712Z,26.53
2019-03-22T20:48:27.506Z,24.27
2019-03-22T20:50:56.208Z,29.30
2019-03-22T20:53:24.926Z,38.13
2019-03-22T20:55:53.648Z,39.03
2019-03-22T20:58:22.376Z,36.93
2019-03-22T21:00:51.161Z,44.23
2019-03-22T21:03:19.886Z,57.60
2019-03-22T21:05:48.639Z,49.83
2019-03-22T21:08:17.349Z,45.03
2019-03-22T21:10:46.054Z,40.83
2019-03-22T21:13:14.824Z,40.07
2019-03-22T21:15:43.540Z,32.03
2019-03-22T21:18:12.246Z,32.10
2019-03-22T21:20:41.006Z,26.60
2019-03-22T21:23:09.718Z,40.27
2019-03-22T21:25:38.458Z,46.67
2019-03-22T21:28:07.209Z,40.93
2019-03-22T21:30:35.920Z,35.00
2019-03-22T21:33:04.653Z,27.97
2019-03-22T21:35:37.598Z,24.83
2019-03-22T21:38:10.918Z,25.77
2019-03-22T21:40:34.347Z,26.23
2019-03-22T21:43:03.119Z,23.73
2019-03-22T21:45:31.833Z,23.70
2019-03-22T21:48:00.550Z,38.57
2019-03-22T21:50:29.315Z,33.47
2019-03-22T21:52:58.023Z,27.20
2019-03-22T21:55:26.737Z,22.87
2019-03-22T21:58:00.476Z,44.80
2019-03-22T22:00:29.187Z,34.13
2019-03-22T22:02:57.894Z,28.07
2019-03-22T22:05:26.651Z,22.43
2019-03-22T22:07:55.370Z,26.27
2019-03-22T22:10:24.080Z,25.63
2019-03-22T22:12:52.848Z,21.67
2019-03-22T22:15:21.564Z,26.30
2019-03-22T22:17:50.279Z,31.30
2019-03-22T22:20:28.367Z,24.50
2019-03-22T22:22:49.477Z,25.33
2019-03-22T22:25:18.192Z,21.63
2019-03-22T22:27:46.943Z,20.00
2019-03-22T22:30:15.761Z,24.63
2019-03-22T22:32:44.479Z,26.73
2019-03-22T22:35:13.252Z,28.43
2019-03-22T22:37:41.966Z,26.30
2019-03-22T22:40:12.680Z,24.10
2019-03-22T22:42:41.398Z,25.87
2019-03-22T22:45:11.315Z,27.80
2019-03-22T22:47:40.058Z,25.77
2019-03-22T22:50:12.394Z,21.23
2019-03-22T22:52:41.100Z,30.00
2019-03-22T22:55:10.315Z,27.40
2019-03-22T22:57:39.031Z,26.13
2019-03-22T23:00:17.915Z,24.63
2019-03-22T23:02:46.624Z,24.63
2019-03-22T23:05:15.343Z,24.60
2019-03-22T23:07:44.131Z,23.63
2019-03-22T23:10:12.927Z,22.57
2019-03-22T23:12:41.893Z,21.03
2019-03-22T23:15:12.115Z,21.77
2019-03-22T23:17:40.830Z,24.07
2019-03-22T23:20:10.947Z,21.17
2019-03-22T23:22:39.713Z,25.57
2019-03-22T23:25:09.326Z,27.27
2019-03-22T23:27:38.236Z,26.63
2019-03-22T23:30:12.079Z,22.67
2019-03-22T23:32:41.093Z,25.17
2019-03-22T23:35:09.799Z,26.93
2019-03-22T23:37:38.555Z,22.87
2019-03-22T23:40:07.861Z,21.93
2019-03-22T23:42:36.572Z,27.03
2019-03-22T23:45:07.530Z,33.10
2019-03-22T23:47:36.239Z,32.87
2019-03-22T23:50:07.893Z,32.20
2019-03-22T23:52:36.658Z,25.07
2019-03-22T23:55:08.603Z,20.93
2019-03-22T23:57:37.337Z,21.80
